sensor_id;sensor_type;location;lat;lon;timestamp;pressure;altitude;pressure_sealevel;temperature
48894;BMP280;34710;35.798;139.446;2023-03-21T00:02:19;100911.56;;;17.27
48894;BMP280;34710;35.798;139.446;2023-03-21T00:04:45;100913.94;;;16.72
48894;BMP280;34710;35.798;139.446;2023-03-21T00:07:10;100914.73;;;17.14
48894;BMP280;34710;35.798;139.446;2023-03-21T00:09:36;100913.75;;;17.03
48894;BMP280;34710;35.798;139.446;2023-03-21T00:12:01;100915.72;;;17.23
48894;BMP280;34710;35.798;139.446;2023-03-21T00:14:26;100918.31;;;17.11
48894;BMP280;34710;35.798;139.446;2023-03-21T00:16:52;100913.49;;;17.18
48894;BMP280;34710;35.798;139.446;2023-03-21T00:19:17;100914.79;;;17.08
48894;BMP280;34710;35.798;139.446;2023-03-21T00:21:42;100919.99;;;17.01
48894;BMP280;34710;35.798;139.446;2023-03-21T00:24:07;100917.92;;;17.36
48894;BMP280;34710;35.798;139.446;2023-03-21T00:26:33;100918.07;;;17.48
48894;BMP280;34710;35.798;139.446;2023-03-21T00:28:59;100917.09;;;17.26
48894;BMP280;34710;35.798;139.446;2023-03-21T00:31:24;100919.22;;;17.32
48894;BMP280;34710;35.798;139.446;2023-03-21T00:33:50;100920.24;;;17.49
48894;BMP280;34710;35.798;139.446;2023-03-21T00:36:15;100920.67;;;17.66
48894;BMP280;34710;35.798;139.446;2023-03-21T00:38:40;100922.02;;;16.93
48894;BMP280;34710;35.798;139.446;2023-03-21T00:41:08;100920.46;;;17.09
48894;BMP280;34710;35.798;139.446;2023-03-21T00:43:30;100918.43;;;17.06
48894;BMP280;34710;35.798;139.446;2023-03-21T00:45:56;100913.04;;;16.82
48894;BMP280;34710;35.798;139.446;2023-03-21T00:48:21;100913.12;;;17.14
48894;BMP280;34710;35.798;139.446;2023-03-21T00:50:47;100907.75;;;17.12
48894;BMP280;34710;35.798;139.446;2023-03-21T00:53:14;100904.01;;;17.14
48894;BMP280;34710;35.798;139.446;2023-03-21T00:55:38;100902.79;;;17.57
48894;BMP280;34710;35.798;139.446;2023-03-21T00:58:03;100904.67;;;17.21
48894;BMP280;34710;35.798;139.446;2023-03-21T01:00:29;100905.49;;;17.67
48894;BMP280;34710;35.798;139.446;2023-03-21T01:02:54;100904.82;;;16.99
48894;BMP280;34710;35.798;139.446;2023-03-21T01:05:19;100908.98;;;17.39
48894;BMP280;34710;35.798;139.446;2023-03-21T01:07:44;100908.55;;;17.39
48894;BMP280;34710;35.798;139.446;2023-03-21T01:10:12;100907.11;;;16.96
48894;BMP280;34710;35.798;139.446;2023-03-21T01:12:36;100915.56;;;16.31
48894;BMP280;34710;35.798;139.446;2023-03-21T01:15:00;100918.59;;;16.18
48894;BMP280;34710;35.798;139.446;2023-03-21T01:17:26;100923.66;;;15.74
48894;BMP280;34710;35.798;139.446;2023-03-21T01:19:52;100918.14;;;16.65
48894;BMP280;34710;35.798;139.446;2023-03-21T01:22:17;100912.67;;;16.89
48894;BMP280;34710;35.798;139.446;2023-03-21T01:24:42;100906.17;;;17.27
48894;BMP280;34710;35.798;139.446;2023-03-21T01:27:08;100904.59;;;16.15
48894;BMP280;34710;35.798;139.446;2023-03-21T01:29:33;100903.55;;;17.04
48894;BMP280;34710;35.798;139.446;2023-03-21T01:31:58;100899.67;;;17.60
48894;BMP280;34710;35.798;139.446;2023-03-21T01:34:24;100892.51;;;17.90
48894;BMP280;34710;35.798;139.446;2023-03-21T01:36:50;100890.42;;;17.78
48894;BMP280;34710;35.798;139.446;2023-03-21T01:39:14;100885.49;;;17.84
48894;BMP280;34710;35.798;139.446;2023-03-21T01:41:42;100877.60;;;17.86
48894;BMP280;34710;35.798;139.446;2023-03-21T01:44:06;100867.66;;;17.72
48894;BMP280;34710;35.798;139.446;2023-03-21T01:46:38;100861.02;;;18.17
48894;BMP280;34710;35.798;139.446;2023-03-21T01:48:59;100861.37;;;18.35
48894;BMP280;34710;35.798;139.446;2023-03-21T01:51:22;100859.31;;;18.07
48894;BMP280;34710;35.798;139.446;2023-03-21T01:53:47;100861.63;;;18.44
48894;BMP280;34710;35.798;139.446;2023-03-21T01:56:16;100864.66;;;17.94
48894;BMP280;34710;35.798;139.446;2023-03-21T01:58:38;100873.73;;;18.38
48894;BMP280;34710;35.798;139.446;2023-03-21T02:01:03;100865.54;;;17.21
48894;BMP280;34710;35.798;139.446;2023-03-21T02:03:29;100833.63;;;17.35
48894;BMP280;34710;35.798;139.446;2023-03-21T02:05:57;100817.60;;;16.88
48894;BMP280;34710;35.798;139.446;2023-03-21T02:08:19;100818.94;;;17.34
48894;BMP280;34710;35.798;139.446;2023-03-21T02:10:46;100806.14;;;17.77
48894;BMP280;34710;35.798;139.446;2023-03-21T02:13:10;100794.55;;;18.02
48894;BMP280;34710;35.798;139.446;2023-03-21T02:15:36;100795.75;;;18.87
48894;BMP280;34710;35.798;139.446;2023-03-21T02:18:05;100811.72;;;17.20
48894;BMP280;34710;35.798;139.446;2023-03-21T02:20:39;100820.59;;;18.27
48894;BMP280;34710;35.798;139.446;2023-03-21T02:25:38;100813.71;;;17.22
48894;BMP280;34710;35.798;139.446;2023-03-21T02:27:45;100815.95;;;16.02
48894;BMP280;34710;35.798;139.446;2023-03-21T02:32:45;100819.75;;;17.11
48894;BMP280;34710;35.798;139.446;2023-03-21T02:37:26;100804.67;;;18.18
48894;BMP280;34710;35.798;139.446;2023-03-21T02:40:00;100810.41;;;18.07
48894;BMP280;34710;35.798;139.446;2023-03-21T02:42:18;100806.65;;;19.09
48894;BMP280;34710;35.798;139.446;2023-03-21T02:44:44;100802.50;;;18.57
48894;BMP280;34710;35.798;139.446;2023-03-21T02:47:08;100799.18;;;18.65
48894;BMP280;34710;35.798;139.446;2023-03-21T02:49:34;100787.07;;;16.55
48894;BMP280;34710;35.798;139.446;2023-03-21T02:51:56;100778.08;;;16.45
48894;BMP280;34710;35.798;139.446;2023-03-21T02:54:23;100765.89;;;17.66
48894;BMP280;34710;35.798;139.446;2023-03-21T02:56:47;100762.92;;;17.22
48894;BMP280;34710;35.798;139.446;2023-03-21T02:59:13;100753.74;;;16.63
48894;BMP280;34710;35.798;139.446;2023-03-21T03:01:37;100746.03;;;17.82
48894;BMP280;34710;35.798;139.446;2023-03-21T03:04:03;100738.73;;;18.34
48894;BMP280;34710;35.798;139.446;2023-03-21T03:06:36;100729.57;;;18.31
48894;BMP280;34710;35.798;139.446;2023-03-21T03:09:06;100725.45;;;17.61
48894;BMP280;34710;35.798;139.446;2023-03-21T03:11:25;100715.32;;;18.17
48894;BMP280;34710;35.798;139.446;2023-03-21T03:13:52;100703.80;;;17.86
48894;BMP280;34710;35.798;139.446;2023-03-21T03:16:18;100698.80;;;18.70
48894;BMP280;34710;35.798;139.446;2023-03-21T03:18:41;100693.70;;;19.20
48894;BMP280;34710;35.798;139.446;2023-03-21T03:21:06;100685.26;;;19.95
48894;BMP280;34710;35.798;139.446;2023-03-21T03:23:29;100674.29;;;19.59
48894;BMP280;34710;35.798;139.446;2023-03-21T03:25:55;100680.05;;;17.36
48894;BMP280;34710;35.798;139.446;2023-03-21T03:28:19;100680.25;;;18.01
48894;BMP280;34710;35.798;139.446;2023-03-21T03:30:42;100671.75;;;17.44
48894;BMP280;34710;35.798;139.446;2023-03-21T03:33:09;100656.16;;;17.65
48894;BMP280;34710;35.798;139.446;2023-03-21T03:35:32;100654.67;;;17.55
48894;BMP280;34710;35.798;139.446;2023-03-21T03:38:01;100652.31;;;16.37
48894;BMP280;34710;35.798;139.446;2023-03-21T03:40:27;100659.69;;;16.83
48894;BMP280;34710;35.798;139.446;2023-03-21T03:42:53;100663.52;;;17.77
48894;BMP280;34710;35.798;139.446;2023-03-21T03:45:14;100671.75;;;17.69
48894;BMP280;34710;35.798;139.446;2023-03-21T03:47:43;100678.26;;;17.88
48894;BMP280;34710;35.798;139.446;2023-03-21T03:50:10;100678.51;;;16.97
48894;BMP280;34710;35.798;139.446;2023-03-21T03:52:33;100677.29;;;17.01
48894;BMP280;34710;35.798;139.446;2023-03-21T03:54:55;100675.34;;;17.90
48894;BMP280;34710;35.798;139.446;2023-03-21T03:57:22;100678.72;;;18.02
48894;BMP280;34710;35.798;139.446;2023-03-21T03:59:46;100678.33;;;17.90
48894;BMP280;34710;35.798;139.446;2023-03-21T04:02:11;100665.57;;;17.39
48894;BMP280;34710;35.798;139.446;2023-03-21T04:04:37;100657.73;;;17.36
48894;BMP280;34710;35.798;139.446;2023-03-21T04:07:03;100652.73;;;17.74
48894;BMP280;34710;35.798;139.446;2023-03-21T04:09:28;100647.48;;;17.86
48894;BMP280;34710;35.798;139.446;2023-03-21T04:11:53;100644.14;;;17.77
48894;BMP280;34710;35.798;139.446;2023-03-21T04:14:18;100644.08;;;18.34
48894;BMP280;34710;35.798;139.446;2023-03-21T04:16:44;100644.23;;;16.80
48894;BMP280;34710;35.798;139.446;2023-03-21T04:19:09;100641.33;;;16.99
48894;BMP280;34710;35.798;139.446;2023-03-21T04:21:35;100646.00;;;17.58
48894;BMP280;34710;35.798;139.446;2023-03-21T04:23:59;100644.55;;;17.55
48894;BMP280;34710;35.798;139.446;2023-03-21T04:26:25;100644.05;;;17.10
48894;BMP280;34710;35.798;139.446;2023-03-21T04:28:50;100646.50;;;17.29
48894;BMP280;34710;35.798;139.446;2023-03-21T04:31:16;100643.73;;;17.29
48894;BMP280;34710;35.798;139.446;2023-03-21T04:33:42;100641.94;;;17.31
48894;BMP280;34710;35.798;139.446;2023-03-21T04:36:08;100636.30;;;17.66
48894;BMP280;34710;35.798;139.446;2023-03-21T04:38:33;100623.90;;;17.89
48894;BMP280;34710;35.798;139.446;2023-03-21T04:40:58;100626.38;;;17.23
48894;BMP280;34710;35.798;139.446;2023-03-21T04:43:22;100627.19;;;17.42
48894;BMP280;34710;35.798;139.446;2023-03-21T04:45:47;100615.99;;;17.44
48894;BMP280;34710;35.798;139.446;2023-03-21T04:48:13;100621.80;;;17.88
48894;BMP280;34710;35.798;139.446;2023-03-21T04:50:38;100625.91;;;17.37
48894;BMP280;34710;35.798;139.446;2023-03-21T04:53:03;100624.61;;;15.57
48894;BMP280;34710;35.798;139.446;2023-03-21T04:55:30;100621.72;;;17.06
48894;BMP280;34710;35.798;139.446;2023-03-21T04:57:55;100622.92;;;17.13
48894;BMP280;34710;35.798;139.446;2023-03-21T05:00:20;100611.23;;;17.02
48894;BMP280;34710;35.798;139.446;2023-03-21T05:02:46;100603.11;;;16.58
48894;BMP280;34710;35.798;139.446;2023-03-21T05:05:11;100594.59;;;17.10
48894;BMP280;34710;35.798;139.446;2023-03-21T05:07:36;100592.26;;;17.48
48894;BMP280;34710;35.798;139.446;2023-03-21T05:10:02;100593.30;;;18.03
48894;BMP280;34710;35.798;139.446;2023-03-21T05:12:27;100591.15;;;17.21
48894;BMP280;34710;35.798;139.446;2023-03-21T05:14:52;100576.60;;;17.61
48894;BMP280;34710;35.798;139.446;2023-03-21T05:17:17;100569.70;;;17.34
48894;BMP280;34710;35.798;139.446;2023-03-21T05:19:44;100574.83;;;17.50
48894;BMP280;34710;35.798;139.446;2023-03-21T05:22:10;100566.11;;;17.56
48894;BMP280;34710;35.798;139.446;2023-03-21T05:24:34;100548.67;;;16.47
48894;BMP280;34710;35.798;139.446;2023-03-21T05:26:59;100549.39;;;16.76
48894;BMP280;34710;35.798;139.446;2023-03-21T05:29:25;100548.88;;;17.14
48894;BMP280;34710;35.798;139.446;2023-03-21T05:31:50;100552.74;;;17.60
48894;BMP280;34710;35.798;139.446;2023-03-21T05:34:15;100542.82;;;17.10
48894;BMP280;34710;35.798;139.446;2023-03-21T05:36:44;100532.94;;;16.44
48894;BMP280;34710;35.798;139.446;2023-03-21T05:39:06;100530.78;;;14.79
48894;BMP280;34710;35.798;139.446;2023-03-21T05:41:33;100534.17;;;15.63
48894;BMP280;34710;35.798;139.446;2023-03-21T05:43:57;100539.43;;;15.12
48894;BMP280;34710;35.798;139.446;2023-03-21T05:46:23;100531.17;;;15.62
48894;BMP280;34710;35.798;139.446;2023-03-21T05:48:48;100529.04;;;16.11
48894;BMP280;34710;35.798;139.446;2023-03-21T05:51:13;100527.16;;;15.65
48894;BMP280;34710;35.798;139.446;2023-03-21T05:53:38;100540.44;;;16.82
48894;BMP280;34710;35.798;139.446;2023-03-21T05:56:04;100550.95;;;16.46
48894;BMP280;34710;35.798;139.446;2023-03-21T05:58:29;100557.79;;;16.38
48894;BMP280;34710;35.798;139.446;2023-03-21T06:00:56;100547.29;;;16.60
48894;BMP280;34710;35.798;139.446;2023-03-21T06:03:19;100554.48;;;17.01
48894;BMP280;34710;35.798;139.446;2023-03-21T06:05:45;100552.96;;;16.68
48894;BMP280;34710;35.798;139.446;2023-03-21T06:08:14;100545.56;;;17.15
48894;BMP280;34710;35.798;139.446;2023-03-21T06:10:36;100538.90;;;17.37
48894;BMP280;34710;35.798;139.446;2023-03-21T06:13:01;100543.27;;;16.87
48894;BMP280;34710;35.798;139.446;2023-03-21T06:15:27;100556.08;;;16.53
48894;BMP280;34710;35.798;139.446;2023-03-21T06:17:58;100564.97;;;16.32
48894;BMP280;34710;35.798;139.446;2023-03-21T06:20:18;100566.87;;;16.24
48894;BMP280;34710;35.798;139.446;2023-03-21T06:22:43;100561.60;;;15.87
48894;BMP280;34710;35.798;139.446;2023-03-21T06:25:09;100557.69;;;16.71
48894;BMP280;34710;35.798;139.446;2023-03-21T06:27:34;100552.31;;;16.14
48894;BMP280;34710;35.798;139.446;2023-03-21T06:29:58;100544.48;;;16.15
48894;BMP280;34710;35.798;139.446;2023-03-21T06:32:25;100540.70;;;17.09
48894;BMP280;34710;35.798;139.446;2023-03-21T06:34:50;100547.93;;;16.95
48894;BMP280;34710;35.798;139.446;2023-03-21T06:37:16;100551.76;;;16.38
48894;BMP280;34710;35.798;139.446;2023-03-21T06:39:41;100550.89;;;16.53
48894;BMP280;34710;35.798;139.446;2023-03-21T06:42:06;100541.96;;;16.17
48894;BMP280;34710;35.798;139.446;2023-03-21T06:44:31;100548.27;;;16.70
48894;BMP280;34710;35.798;139.446;2023-03-21T06:46:56;100550.98;;;17.58
48894;BMP280;34710;35.798;139.446;2023-03-21T06:49:22;100556.71;;;17.70
48894;BMP280;34710;35.798;139.446;2023-03-21T06:51:47;100554.45;;;17.77
48894;BMP280;34710;35.798;139.446;2023-03-21T06:54:12;100555.96;;;16.57
48894;BMP280;34710;35.798;139.446;2023-03-21T06:56:39;100559.07;;;16.76
48894;BMP280;34710;35.798;139.446;2023-03-21T06:59:06;100557.34;;;17.05
48894;BMP280;34710;35.798;139.446;2023-03-21T07:01:29;100554.02;;;17.71
48894;BMP280;34710;35.798;139.446;2023-03-21T07:03:54;100565.00;;;17.00
48894;BMP280;34710;35.798;139.446;2023-03-21T07:06:20;100566.35;;;16.38
48894;BMP280;34710;35.798;139.446;2023-03-21T07:08:45;100560.76;;;16.32
48894;BMP280;34710;35.798;139.446;2023-03-21T07:11:11;100555.00;;;17.07
48894;BMP280;34710;35.798;139.446;2023-03-21T07:13:36;100557.03;;;17.46
48894;BMP280;34710;35.798;139.446;2023-03-21T07:16:01;100548.30;;;17.34
48894;BMP280;34710;35.798;139.446;2023-03-21T07:18:26;100547.14;;;17.89
48894;BMP280;34710;35.798;139.446;2023-03-21T07:20:57;100561.04;;;17.63
48894;BMP280;34710;35.798;139.446;2023-03-21T07:23:19;100560.31;;;16.90
48894;BMP280;34710;35.798;139.446;2023-03-21T07:25:44;100557.63;;;17.18
48894;BMP280;34710;35.798;139.446;2023-03-21T07:28:08;100551.23;;;17.25
48894;BMP280;34710;35.798;139.446;2023-03-21T07:30:34;100548.82;;;16.64
48894;BMP280;34710;35.798;139.446;2023-03-21T07:32:58;100540.91;;;17.53
48894;BMP280;34710;35.798;139.446;2023-03-21T07:35:24;100542.83;;;17.27
48894;BMP280;34710;35.798;139.446;2023-03-21T07:37:50;100552.73;;;16.77
48894;BMP280;34710;35.798;139.446;2023-03-21T07:40:16;100553.41;;;17.25
48894;BMP280;34710;35.798;139.446;2023-03-21T07:42:41;100557.46;;;16.11
48894;BMP280;34710;35.798;139.446;2023-03-21T07:45:10;100568.41;;;15.67
48894;BMP280;34710;35.798;139.446;2023-03-21T07:47:33;100567.10;;;16.22
48894;BMP280;34710;35.798;139.446;2023-03-21T07:49:57;100560.44;;;16.00
48894;BMP280;34710;35.798;139.446;2023-03-21T07:52:22;100557.36;;;16.50
48894;BMP280;34710;35.798;139.446;2023-03-21T07:54:47;100555.68;;;16.76
48894;BMP280;34710;35.798;139.446;2023-03-21T07:57:12;100556.53;;;16.47
48894;BMP280;34710;35.798;139.446;2023-03-21T07:59:38;100557.27;;;16.33
48894;BMP280;34710;35.798;139.446;2023-03-21T08:02:04;100561.85;;;16.05
48894;BMP280;34710;35.798;139.446;2023-03-21T08:04:29;100563.10;;;15.26
48894;BMP280;34710;35.798;139.446;2023-03-21T08:06:57;100549.78;;;15.45
48894;BMP280;34710;35.798;139.446;2023-03-21T08:09:20;100545.10;;;16.22
48894;BMP280;34710;35.798;139.446;2023-03-21T08:11:45;100537.40;;;15.84
48894;BMP280;34710;35.798;139.446;2023-03-21T08:14:20;100533.43;;;15.12
48894;BMP280;34710;35.798;139.446;2023-03-21T08:16:35;100526.02;;;15.22
48894;BMP280;34710;35.798;139.446;2023-03-21T08:19:01;100511.05;;;15.68
48894;BMP280;34710;35.798;139.446;2023-03-21T08:21:26;100508.05;;;16.18
48894;BMP280;34710;35.798;139.446;2023-03-21T08:23:53;100526.96;;;16.34
48894;BMP280;34710;35.798;139.446;2023-03-21T08:26:18;100538.47;;;16.45
48894;BMP280;34710;35.798;139.446;2023-03-21T08:28:42;100528.51;;;16.15
48894;BMP280;34710;35.798;139.446;2023-03-21T08:31:10;100530.05;;;16.36
48894;BMP280;34710;35.798;139.446;2023-03-21T08:33:34;100523.33;;;16.76
48894;BMP280;34710;35.798;139.446;2023-03-21T08:36:00;100518.13;;;16.85
48894;BMP280;34710;35.798;139.446;2023-03-21T08:38:25;100509.15;;;16.60
48894;BMP280;34710;35.798;139.446;2023-03-21T08:40:50;100510.18;;;16.70
48894;BMP280;34710;35.798;139.446;2023-03-21T08:43:15;100524.22;;;16.72
48894;BMP280;34710;35.798;139.446;2023-03-21T08:45:40;100530.66;;;15.52
48894;BMP280;34710;35.798;139.446;2023-03-21T08:48:06;100547.49;;;15.52
48894;BMP280;34710;35.798;139.446;2023-03-21T08:50:31;100550.16;;;14.93
48894;BMP280;34710;35.798;139.446;2023-03-21T08:52:56;100534.64;;;14.46
48894;BMP280;34710;35.798;139.446;2023-03-21T08:55:21;100521.10;;;14.95
48894;BMP280;34710;35.798;139.446;2023-03-21T08:57:48;100513.01;;;14.80
48894;BMP280;34710;35.798;139.446;2023-03-21T09:00:15;100509.61;;;15.23
48894;BMP280;34710;35.798;139.446;2023-03-21T09:02:38;100515.85;;;15.98
48894;BMP280;34710;35.798;139.446;2023-03-21T09:05:04;100521.98;;;16.03
48894;BMP280;34710;35.798;139.446;2023-03-21T09:07:28;100524.01;;;16.04
48894;BMP280;34710;35.798;139.446;2023-03-21T09:09:54;100525.54;;;15.96
48894;BMP280;34710;35.798;139.446;2023-03-21T09:12:20;100534.77;;;16.68
48894;BMP280;34710;35.798;139.446;2023-03-21T09:14:45;100534.06;;;16.45
48894;BMP280;34710;35.798;139.446;2023-03-21T09:17:10;100537.00;;;16.62
48894;BMP280;34710;35.798;139.446;2023-03-21T09:19:35;100533.72;;;16.89
48894;BMP280;34710;35.798;139.446;2023-03-21T09:22:01;100535.68;;;16.02
48894;BMP280;34710;35.798;139.446;2023-03-21T09:24:26;100534.65;;;16.93
48894;BMP280;34710;35.798;139.446;2023-03-21T09:26:52;100533.51;;;16.91
48894;BMP280;34710;35.798;139.446;2023-03-21T09:29:18;100537.36;;;17.30
48894;BMP280;34710;35.798;139.446;2023-03-21T09:31:42;100540.94;;;16.51
48894;BMP280;34710;35.798;139.446;2023-03-21T09:34:08;100536.45;;;16.91
48894;BMP280;34710;35.798;139.446;2023-03-21T09:36:33;100541.54;;;17.16
48894;BMP280;34710;35.798;139.446;2023-03-21T09:38:58;100549.37;;;17.04
48894;BMP280;34710;35.798;139.446;2023-03-21T09:41:42;100542.03;;;16.83
48894;BMP280;34710;35.798;139.446;2023-03-21T09:44:00;100531.89;;;16.93
48894;BMP280;34710;35.798;139.446;2023-03-21T09:46:21;100530.13;;;16.37
48894;BMP280;34710;35.798;139.446;2023-03-21T09:48:48;100538.25;;;17.09
48894;BMP280;34710;35.798;139.446;2023-03-21T09:51:12;100554.27;;;15.51
48894;BMP280;34710;35.798;139.446;2023-03-21T09:53:36;100565.42;;;16.29
48894;BMP280;34710;35.798;139.446;2023-03-21T09:55:57;100571.56;;;15.80
48894;BMP280;34710;35.798;139.446;2023-03-21T09:58:26;100576.58;;;15.72
48894;BMP280;34710;35.798;139.446;2023-03-21T10:00:50;100582.03;;;16.08
48894;BMP280;34710;35.798;139.446;2023-03-21T10:03:18;100579.72;;;16.43
48894;BMP280;34710;35.798;139.446;2023-03-21T10:05:40;100578.64;;;16.43
48894;BMP280;34710;35.798;139.446;2023-03-21T10:08:07;100578.53;;;16.65
48894;BMP280;34710;35.798;139.446;2023-03-21T10:10:31;100582.10;;;16.37
48894;BMP280;34710;35.798;139.446;2023-03-21T10:12:56;100582.51;;;16.46
48894;BMP280;34710;35.798;139.446;2023-03-21T10:15:22;100580.68;;;16.73
48894;BMP280;34710;35.798;139.446;2023-03-21T10:17:52;100592.57;;;16.36
48894;BMP280;34710;35.798;139.446;2023-03-21T10:22:35;100606.11;;;16.72
48894;BMP280;34710;35.798;139.446;2023-03-21T10:25:01;100595.22;;;16.76
48894;BMP280;34710;35.798;139.446;2023-03-21T10:27:26;100586.68;;;16.02
48894;BMP280;34710;35.798;139.446;2023-03-21T10:29:51;100586.70;;;16.33
48894;BMP280;34710;35.798;139.446;2023-03-21T10:32:17;100601.13;;;16.41
48894;BMP280;34710;35.798;139.446;2023-03-21T10:34:45;100610.37;;;16.68
48894;BMP280;34710;35.798;139.446;2023-03-21T10:37:09;100610.24;;;16.54
48894;BMP280;34710;35.798;139.446;2023-03-21T10:39:34;100613.69;;;16.97
48894;BMP280;34710;35.798;139.446;2023-03-21T10:41:59;100615.15;;;16.71
48894;BMP280;34710;35.798;139.446;2023-03-21T10:44:29;100624.68;;;16.74
48894;BMP280;34710;35.798;139.446;2023-03-21T10:46:53;100632.80;;;16.80
48894;BMP280;34710;35.798;139.446;2023-03-21T10:49:15;100630.27;;;16.80
48894;BMP280;34710;35.798;139.446;2023-03-21T10:51:40;100624.29;;;16.65
48894;BMP280;34710;35.798;139.446;2023-03-21T10:54:07;100621.87;;;17.01
48894;BMP280;34710;35.798;139.446;2023-03-21T10:56:34;100618.65;;;16.60
48894;BMP280;34710;35.798;139.446;2023-03-21T10:58:58;100616.70;;;16.45
48894;BMP280;34710;35.798;139.446;2023-03-21T11:01:27;100612.28;;;16.69
48894;BMP280;34710;35.798;139.446;2023-03-21T11:03:47;100616.11;;;16.76
48894;BMP280;34710;35.798;139.446;2023-03-21T11:06:16;100625.16;;;16.71
48894;BMP280;34710;35.798;139.446;2023-03-21T11:08:39;100632.06;;;16.73
48894;BMP280;34710;35.798;139.446;2023-03-21T11:11:06;100636.77;;;16.97
48894;BMP280;34710;35.798;139.446;2023-03-21T11:13:33;100637.18;;;16.63
48894;BMP280;34710;35.798;139.446;2023-03-21T11:15:56;100635.42;;;16.86
48894;BMP280;34710;35.798;139.446;2023-03-21T11:18:21;100627.57;;;16.86
48894;BMP280;34710;35.798;139.446;2023-03-21T11:20:50;100631.62;;;16.89
48894;BMP280;34710;35.798;139.446;2023-03-21T11:23:13;100633.44;;;16.99
48894;BMP280;34710;35.798;139.446;2023-03-21T11:25:37;100633.12;;;16.66
48894;BMP280;34710;35.798;139.446;2023-03-21T11:28:07;100625.95;;;17.07
48894;BMP280;34710;35.798;139.446;2023-03-21T11:30:27;100623.11;;;16.87
48894;BMP280;34710;35.798;139.446;2023-03-21T11:32:55;100617.89;;;16.32
48894;BMP280;34710;35.798;139.446;2023-03-21T11:35:21;100615.70;;;16.35
48894;BMP280;34710;35.798;139.446;2023-03-21T11:37:44;100616.49;;;16.41
48894;BMP280;34710;35.798;139.446;2023-03-21T11:42:39;100629.58;;;16.69
48894;BMP280;34710;35.798;139.446;2023-03-21T11:45:04;100627.78;;;16.64
48894;BMP280;34710;35.798;139.446;2023-03-21T11:47:24;100623.57;;;16.43
48894;BMP280;34710;35.798;139.446;2023-03-21T11:49:50;100627.82;;;16.27
48894;BMP280;34710;35.798;139.446;2023-03-21T11:52:22;100621.92;;;15.93
48894;BMP280;34710;35.798;139.446;2023-03-21T11:57:13;100620.27;;;15.95
48894;BMP280;34710;35.798;139.446;2023-03-21T11:59:40;100623.18;;;16.44
48894;BMP280;34710;35.798;139.446;2023-03-21T12:02:06;100616.79;;;16.22
48894;BMP280;34710;35.798;139.446;2023-03-21T12:06:51;100615.14;;;16.23
48894;BMP280;34710;35.798;139.446;2023-03-21T12:09:28;100617.48;;;16.09
48894;BMP280;34710;35.798;139.446;2023-03-21T12:11:50;100617.04;;;16.31
48894;BMP280;34710;35.798;139.446;2023-03-21T12:14:09;100615.95;;;16.15
48894;BMP280;34710;35.798;139.446;2023-03-21T12:16:40;100616.73;;;16.20
48894;BMP280;34710;35.798;139.446;2023-03-21T12:19:09;100614.74;;;16.17
48894;BMP280;34710;35.798;139.446;2023-03-21T12:21:22;100614.63;;;16.25
48894;BMP280;34710;35.798;139.446;2023-03-21T12:23:54;100623.67;;;16.30
48894;BMP280;34710;35.798;139.446;2023-03-21T12:26:18;100629.45;;;16.24
48894;BMP280;34710;35.798;139.446;2023-03-21T12:28:45;100632.69;;;16.17
48894;BMP280;34710;35.798;139.446;2023-03-21T12:31:07;100635.79;;;15.99
48894;BMP280;34710;35.798;139.446;2023-03-21T12:33:37;100638.47;;;16.30
48894;BMP280;34710;35.798;139.446;2023-03-21T12:36:03;100636.96;;;16.45
48894;BMP280;34710;35.798;139.446;2023-03-21T12:38:21;100634.45;;;16.16
48894;BMP280;34710;35.798;139.446;2023-03-21T12:40:54;100632.61;;;15.91
48894;BMP280;34710;35.798;139.446;2023-03-21T12:45:36;100626.05;;;16.33
48894;BMP280;34710;35.798;139.446;2023-03-21T12:48:05;100622.20;;;16.27
48894;BMP280;34710;35.798;139.446;2023-03-21T12:50:28;100620.59;;;16.30
48894;BMP280;34710;35.798;139.446;2023-03-21T12:52:51;100624.32;;;16.20
48894;BMP280;34710;35.798;139.446;2023-03-21T12:55:17;100622.07;;;16.19
48894;BMP280;34710;35.798;139.446;2023-03-21T12:57:41;100620.42;;;16.16
48894;BMP280;34710;35.798;139.446;2023-03-21T13:00:12;100628.81;;;16.05
48894;BMP280;34710;35.798;139.446;2023-03-21T13:02:35;100634.21;;;15.99
48894;BMP280;34710;35.798;139.446;2023-03-21T13:05:02;100635.38;;;15.91
48894;BMP280;34710;35.798;139.446;2023-03-21T13:07:24;100636.21;;;15.98
48894;BMP280;34710;35.798;139.446;2023-03-21T13:09:47;100633.15;;;15.87
48894;BMP280;34710;35.798;139.446;2023-03-21T13:12:21;100636.34;;;15.92
48894;BMP280;34710;35.798;139.446;2023-03-21T13:14:42;100640.69;;;15.94
48894;BMP280;34710;35.798;139.446;2023-03-21T13:17:07;100641.04;;;15.97
48894;BMP280;34710;35.798;139.446;2023-03-21T13:19:33;100639.69;;;15.86
48894;BMP280;34710;35.798;139.446;2023-03-21T13:21:59;100644.80;;;15.81
48894;BMP280;34710;35.798;139.446;2023-03-21T13:24:27;100645.40;;;15.57
48894;BMP280;34710;35.798;139.446;2023-03-21T13:26:48;100650.84;;;15.79
48894;BMP280;34710;35.798;139.446;2023-03-21T13:31:36;100648.06;;;15.68
48894;BMP280;34710;35.798;139.446;2023-03-21T13:34:01;100636.53;;;15.63
48894;BMP280;34710;35.798;139.446;2023-03-21T13:36:28;100625.42;;;15.53
48894;BMP280;34710;35.798;139.446;2023-03-21T13:38:53;100626.47;;;15.29
48894;BMP280;34710;35.798;139.446;2023-03-21T13:41:20;100620.81;;;15.42
48894;BMP280;34710;35.798;139.446;2023-03-21T13:43:47;100614.79;;;15.44